createdAt,value
2023-03-04T00:06:37.868Z,45.90
2023-03-04T00:17:03.852Z,48.90
2023-03-04T00:27:28.668Z,47.40
2023-03-04T00:37:53.506Z,43.20
2023-03-04T00:48:18.298Z,44.10
2023-03-04T00:58:43.011Z,40.20
2023-03-04T01:09:07.959Z,49.20
2023-03-04T01:19:32.948Z,34.20
2023-03-04T01:29:58.106Z,46.80
2023-03-04T01:40:24.081Z,37.50
2023-03-04T01:50:48.682Z,44.40
2023-03-04T02:01:13.976Z,36.80
2023-03-04T02:11:39.666Z,39.60
2023-03-04T02:22:04.342Z,33.80
2023-03-04T02:32:28.777Z,36.30
2023-03-04T02:42:53.215Z,38.10
2023-03-04T02:53:17.565Z,43.00
2023-03-04T03:03:41.770Z,34.60
2023-03-04T03:14:06.591Z,36.90
2023-03-04T03:24:30.786Z,35.30
2023-03-04T03:34:55.039Z,32.10
2023-03-04T03:45:20.027Z,30.50
2023-03-04T03:55:44.959Z,38.80
2023-03-04T04:06:09.937Z,37.60
2023-03-04T04:16:36.043Z,30.70
2023-03-04T04:27:00.862Z,42.50
2023-03-04T04:37:25.248Z,33.90
2023-03-04T04:47:49.399Z,33.80
2023-03-04T04:58:13.641Z,34.90
2023-03-04T05:08:38.306Z,41.10
2023-03-04T05:19:02.505Z,41.50
2023-03-04T05:29:26.781Z,36.00
2023-03-04T05:39:50.981Z,46.60
2023-03-04T05:50:15.514Z,39.40
2023-03-04T06:00:39.729Z,39.40
2023-03-04T06:11:04.944Z,40.50
2023-03-04T06:21:29.230Z,47.60
2023-03-04T06:31:53.607Z,43.10
2023-03-04T06:42:17.982Z,41.10
2023-03-04T06:52:42.438Z,39.30
2023-03-04T07:03:06.673Z,40.10
2023-03-04T07:13:30.990Z,36.90
2023-03-04T07:23:56.703Z,41.30
2023-03-04T07:34:21.212Z,39.70
2023-03-04T07:44:45.387Z,36.50
2023-03-04T07:55:12.445Z,35.20
2023-03-04T08:05:39.872Z,35.70
2023-03-04T08:16:06.454Z,33.30
2023-03-04T08:26:34.077Z,28.40
2023-03-04T08:36:58.901Z,25.70
2023-03-04T08:47:23.751Z,29.70
2023-03-04T08:57:48.142Z,25.20
2023-03-04T09:08:12.947Z,23.70
2023-03-04T09:18:37.312Z,29.50
2023-03-04T09:29:02.648Z,29.10
2023-03-04T09:39:27.385Z,32.80
2023-03-04T09:49:57.302Z,36.00
2023-03-04T10:00:24.531Z,39.80
2023-03-04T10:10:51.380Z,43.70
2023-03-04T10:21:23.036Z,50.90
2023-03-04T10:31:48.821Z,59.50
2023-03-04T10:42:30.081Z,57.20
2023-03-04T10:52:55.706Z,46.50
2023-03-04T11:03:30.009Z,47.10
2023-03-04T11:13:59.245Z,46.70
2023-03-04T11:24:30.211Z,36.70
2023-03-04T11:35:01.175Z,42.10
2023-03-04T11:45:36.851Z,37.00
2023-03-04T11:56:10.815Z,41.60
2023-03-04T12:06:47.953Z,41.40
2023-03-04T12:17:40.172Z,33.40
2023-03-04T12:28:21.227Z,31.10
2023-03-04T12:39:05.789Z,31.40
2023-03-04T12:49:54.655Z,34.50
2023-03-04T13:00:31.235Z,26.70
2023-03-04T13:11:02.351Z,23.50
2023-03-04T13:21:28.474Z,26.60
2023-03-04T13:32:01.439Z,22.70
2023-03-04T13:42:43.347Z,27.80
2023-03-04T13:53:31.398Z,27.40
2023-03-04T14:03:56.301Z,32.10
2023-03-04T14:14:24.250Z,27.10
2023-03-04T14:25:01.914Z,25.60
2023-03-04T14:35:28.314Z,25.90
2023-03-04T14:45:55.929Z,24.40
2023-03-04T14:56:28.839Z,23.70
2023-03-04T15:06:54.342Z,29.90
2023-03-04T15:17:36.959Z,28.60
2023-03-04T15:28:02.987Z,31.90
2023-03-04T15:38:29.207Z,31.60
2023-03-04T15:48:54.523Z,28.40
2023-03-04T15:59:19.930Z,31.00
2023-03-04T16:09:44.425Z,36.00
2023-03-04T16:20:11.883Z,28.30
2023-03-04T16:30:36.213Z,31.30
2023-03-04T16:41:01.843Z,32.70
2023-03-04T16:51:26.147Z,32.10
2023-03-04T17:01:54.037Z,34.80
2023-03-04T17:12:18.459Z,36.40
2023-03-04T17:22:43.276Z,36.20
2023-03-04T17:33:08.233Z,32.10
2023-03-04T17:43:33.243Z,38.40
2023-03-04T17:53:58.799Z,34.10
2023-03-04T18:04:24.501Z,32.60
2023-03-04T18:14:48.853Z,42.10
2023-03-04T18:25:13.887Z,31.20
2023-03-04T18:35:38.256Z,28.30
2023-03-04T18:46:05.753Z,28.30
2023-03-04T18:56:37.674Z,30.90
2023-03-04T19:07:02.133Z,36.10
2023-03-04T19:17:31.527Z,30.20
2023-03-04T19:27:56.496Z,32.70
2023-03-04T19:38:21.796Z,34.90
2023-03-04T19:48:49.512Z,31.00
2023-03-04T19:59:13.870Z,35.50
2023-03-04T20:09:38.128Z,38.10
2023-03-04T20:20:03.420Z,33.00
2023-03-04T20:30:27.689Z,24.00
2023-03-04T20:40:51.924Z,18.80
2023-03-04T20:51:16.768Z,20.60
2023-03-04T21:01:44.066Z,24.70
2023-03-04T21:12:09.660Z,20.10
2023-03-04T21:22:33.990Z,21.30
2023-03-04T21:32:59.958Z,23.10
2023-03-04T21:43:24.783Z,23.70
2023-03-04T21:53:49.652Z,17.30
2023-03-04T22:04:14.616Z,17.60
2023-03-04T22:14:39.685Z,15.50
2023-03-04T22:25:04.916Z,10.30
2023-03-04T22:35:29.200Z,7.90
2023-03-04T22:45:54.172Z,11.10
2023-03-04T22:56:20.216Z,8.40
2023-03-04T23:06:44.585Z,10.40
2023-03-04T23:17:10.053Z,9.00
2023-03-04T23:27:34.864Z,12.00
2023-03-04T23:37:59.745Z,14.60
2023-03-04T23:48:24.559Z,11.20
2023-03-04T23:58:50.190Z,11.30
